createdAt,value
2018-06-15T00:01:28.804Z,87.62
2018-06-15T00:02:28.813Z,87.82
2018-06-15T00:04:21.731Z,88.25
2018-06-15T00:05:21.755Z,88.59
2018-06-15T00:07:14.691Z,88.49
2018-06-15T00:08:14.699Z,88.35
2018-06-15T00:10:07.633Z,88.39
2018-06-15T00:11:07.641Z,88.49
2018-06-15T00:13:00.557Z,87.96
2018-06-15T00:14:00.585Z,88.30
2018-06-15T00:15:53.517Z,88.54
2018-06-15T00:16:53.527Z,88.45
2018-06-15T00:18:46.444Z,88.45
2018-06-15T00:19:46.470Z,88.39
2018-06-15T00:21:40.900Z,88.59
2018-06-15T00:22:40.904Z,88.20
2018-06-15T00:24:33.821Z,88.20
2018-06-15T00:25:33.848Z,88.39
2018-06-15T00:27:26.791Z,88.39
2018-06-15T00:28:26.791Z,88.06
2018-06-15T00:30:19.712Z,88.35
2018-06-15T00:31:19.736Z,88.35
2018-06-15T00:33:12.671Z,88.25
2018-06-15T00:34:12.687Z,88.16
2018-06-15T00:36:05.615Z,88.83
2018-06-15T00:37:05.624Z,88.45
2018-06-15T00:38:58.539Z,88.10
2018-06-15T00:39:58.567Z,88.30
2018-06-15T00:41:51.508Z,88.25
2018-06-15T00:42:51.509Z,88.16
2018-06-15T00:44:44.430Z,89.02
2018-06-15T00:45:44.460Z,88.93
2018-06-15T00:47:37.392Z,89.40
2018-06-15T00:48:37.400Z,89.12
2018-06-15T00:50:30.349Z,89.02
2018-06-15T00:51:30.340Z,89.98
2018-06-15T00:53:23.282Z,89.89
2018-06-15T00:54:23.286Z,89.84
2018-06-15T00:56:16.196Z,89.36
2018-06-15T00:57:16.225Z,89.84
2018-06-15T00:59:09.155Z,90.42
2018-06-15T01:00:09.165Z,90.22
2018-06-15T01:02:02.595Z,90.13
2018-06-15T01:03:02.600Z,90.22
2018-06-15T01:04:56.008Z,90.22
2018-06-15T01:05:56.034Z,90.42
2018-06-15T01:07:48.967Z,90.61
2018-06-15T01:08:48.976Z,90.03
2018-06-15T01:10:41.888Z,89.84
2018-06-15T01:11:41.917Z,90.03
2018-06-15T01:13:34.847Z,89.65
2018-06-15T01:14:34.858Z,89.84
2018-06-15T01:16:27.769Z,88.98
2018-06-15T01:17:27.797Z,89.26
2018-06-15T01:19:21.235Z,89.31
2018-06-15T01:20:21.241Z,89.07
2018-06-15T01:22:14.156Z,89.07
2018-06-15T01:23:14.184Z,89.12
2018-06-15T01:25:07.116Z,89.12
2018-06-15T01:26:07.123Z,89.12
2018-06-15T01:28:00.056Z,89.98
2018-06-15T01:29:00.064Z,89.98
2018-06-15T01:30:52.980Z,89.89
2018-06-15T01:31:53.007Z,89.69
2018-06-15T01:33:45.942Z,89.31
2018-06-15T01:34:45.948Z,89.22
2018-06-15T01:36:38.864Z,88.64
2018-06-15T01:37:38.891Z,89.02
2018-06-15T01:39:31.824Z,89.12
2018-06-15T01:40:31.832Z,88.64
2018-06-15T01:42:24.753Z,88.54
2018-06-15T01:43:24.777Z,88.54
2018-06-15T01:45:18.207Z,88.54
2018-06-15T01:46:18.214Z,88.45
2018-06-15T01:48:11.143Z,88.35
2018-06-15T01:49:11.161Z,88.40
2018-06-15T01:51:04.070Z,88.35
2018-06-15T01:52:04.095Z,88.35
2018-06-15T01:53:57.029Z,88.45
2018-06-15T01:54:57.056Z,88.16
2018-06-15T01:56:49.956Z,88.16
2018-06-15T01:57:49.975Z,88.16
2018-06-15T01:59:47.916Z,88.25
2018-06-15T02:00:47.932Z,88.35
2018-06-15T02:02:40.828Z,88.06
2018-06-15T02:03:40.856Z,88.16
2018-06-15T02:05:33.788Z,88.64
2018-06-15T02:06:33.790Z,88.16
2018-06-15T02:08:26.707Z,88.45
2018-06-15T02:09:26.733Z,88.16
2018-06-15T02:11:20.161Z,88.06
2018-06-15T02:12:20.167Z,88.16
2018-06-15T02:14:13.110Z,88.45
2018-06-15T02:15:13.112Z,88.35
2018-06-15T02:17:06.027Z,87.68
2018-06-15T02:18:06.057Z,87.19
2018-06-15T02:19:58.987Z,87.68
2018-06-15T02:20:58.996Z,87.63
2018-06-15T02:22:51.916Z,87.35
2018-06-15T02:23:51.939Z,87.44
2018-06-15T02:25:45.366Z,87.19
2018-06-15T02:26:45.372Z,87.92
2018-06-15T02:28:38.287Z,87.82
2018-06-15T02:29:38.315Z,88.40
2018-06-15T02:31:31.246Z,88.31
2018-06-15T02:32:31.255Z,88.31
2018-06-15T02:34:24.207Z,88.54
2018-06-15T02:35:24.200Z,88.40
2018-06-15T02:37:17.605Z,88.40
2018-06-15T02:38:17.637Z,88.31
2018-06-15T02:40:10.564Z,87.54
2018-06-15T02:41:10.585Z,87.73
2018-06-15T02:43:03.485Z,88.21
2018-06-15T02:44:03.513Z,88.49
2018-06-15T02:45:56.447Z,88.31
2018-06-15T02:46:56.454Z,88.40
2018-06-15T02:48:49.858Z,88.59
2018-06-15T02:49:49.884Z,88.59
2018-06-15T02:51:42.827Z,88.11
2018-06-15T02:52:42.828Z,88.21
2018-06-15T02:54:36.235Z,87.73
2018-06-15T02:55:36.261Z,88.49
2018-06-15T02:57:29.201Z,87.98
2018-06-15T02:58:29.205Z,88.88
2018-06-15T03:00:22.137Z,88.49
2018-06-15T03:01:22.143Z,88.59
2018-06-15T03:03:15.071Z,88.69
2018-06-15T03:04:15.083Z,88.98
2018-06-15T03:06:09.507Z,88.98
2018-06-15T03:07:09.512Z,88.49
2018-06-15T03:09:02.432Z,88.21
2018-06-15T03:10:02.457Z,88.84
2018-06-15T03:11:55.389Z,88.93
2018-06-15T03:12:55.398Z,88.74
2018-06-15T03:14:48.315Z,88.65
2018-06-15T03:15:48.339Z,88.55
2018-06-15T03:17:41.274Z,88.79
2018-06-15T03:18:41.282Z,88.45
2018-06-15T03:20:34.201Z,88.65
2018-06-15T03:21:34.225Z,89.51
2018-06-15T03:23:27.162Z,88.55
2018-06-15T03:24:27.168Z,88.45
2018-06-15T03:26:20.108Z,88.74
2018-06-15T03:27:20.112Z,88.65
2018-06-15T03:29:13.026Z,88.59
2018-06-15T03:30:13.050Z,88.79
2018-06-15T03:32:05.981Z,89.07
2018-06-15T03:33:05.991Z,89.07
2018-06-15T03:34:58.904Z,88.79
2018-06-15T03:35:58.930Z,88.49
2018-06-15T03:37:51.886Z,89.55
2018-06-15T03:38:51.876Z,89.46
2018-06-15T03:40:44.790Z,89.17
2018-06-15T03:41:44.812Z,89.26
2018-06-15T03:43:37.747Z,89.07
2018-06-15T03:44:37.756Z,89.36
2018-06-15T03:46:30.696Z,89.36
2018-06-15T03:47:30.702Z,88.79
2018-06-15T03:49:23.626Z,88.79
2018-06-15T03:50:23.677Z,88.59
2018-06-15T03:52:16.586Z,88.69
2018-06-15T03:53:16.595Z,88.79
2018-06-15T03:55:09.505Z,88.49
2018-06-15T03:56:09.534Z,88.16
2018-06-15T03:58:02.465Z,88.31
2018-06-15T03:59:02.480Z,87.92
2018-06-15T04:00:55.382Z,88.02
2018-06-15T04:01:55.404Z,88.49
2018-06-15T04:03:48.349Z,88.88
2018-06-15T04:04:48.351Z,88.59
2018-06-15T04:06:41.287Z,89.36
2018-06-15T04:07:41.314Z,89.26
2018-06-15T04:09:34.234Z,89.26
2018-06-15T04:10:34.267Z,89.31
2018-06-15T04:12:27.256Z,89.22
2018-06-15T04:13:27.258Z,89.22
2018-06-15T04:15:20.187Z,89.31
2018-06-15T04:16:20.213Z,89.12
2018-06-15T04:18:13.165Z,89.12
2018-06-15T04:19:13.172Z,89.22
2018-06-15T04:21:06.090Z,89.12
2018-06-15T04:22:06.117Z,88.54
2018-06-15T04:23:59.051Z,88.59
2018-06-15T04:24:59.057Z,88.59
2018-06-15T04:26:52.010Z,89.07
2018-06-15T04:27:52.033Z,88.78
2018-06-15T04:29:44.978Z,88.01
2018-06-15T04:30:44.984Z,88.10
2018-06-15T04:32:37.934Z,88.39
2018-06-15T04:33:37.941Z,88.39
2018-06-15T04:35:30.868Z,87.86
2018-06-15T04:36:30.894Z,87.86
2018-06-15T04:38:23.842Z,87.67
2018-06-15T04:39:23.848Z,87.76
2018-06-15T04:41:19.848Z,87.48
2018-06-15T04:42:19.874Z,87.29
2018-06-15T04:44:12.823Z,87.09
2018-06-15T04:45:12.830Z,87.29
2018-06-15T04:47:05.755Z,86.90
2018-06-15T04:48:05.785Z,86.99
2018-06-15T04:49:59.243Z,86.90
2018-06-15T04:50:59.249Z,86.99
2018-06-15T04:52:52.217Z,86.90
2018-06-15T04:53:52.202Z,86.61
2018-06-15T04:55:45.130Z,87.09
2018-06-15T04:56:45.157Z,86.71
2018-06-15T04:58:38.104Z,86.71
2018-06-15T04:59:38.112Z,86.71
2018-06-15T05:01:31.040Z,86.65
2018-06-15T05:02:31.065Z,87.04
2018-06-15T05:04:24.016Z,86.75
2018-06-15T05:05:24.033Z,86.27
2018-06-15T05:07:16.949Z,86.99
2018-06-15T05:08:16.974Z,86.60
2018-06-15T05:10:09.921Z,84.19
2018-06-15T05:11:09.930Z,84.23
2018-06-15T05:13:02.859Z,83.66
2018-06-15T05:14:02.887Z,81.83
2018-06-15T05:15:56.344Z,81.83
2018-06-15T05:16:56.351Z,81.68
2018-06-15T05:18:49.399Z,81.39
2018-06-15T05:19:49.408Z,80.91
2018-06-15T05:21:42.437Z,81.01
2018-06-15T05:22:42.465Z,80.66
2018-06-15T05:24:35.511Z,79.69
2018-06-15T05:25:35.520Z,79.21
2018-06-15T05:27:28.445Z,77.67
2018-06-15T05:28:28.474Z,78.44
2018-06-15T05:30:21.415Z,78.34
2018-06-15T05:31:21.425Z,78.25
2018-06-15T05:33:14.349Z,78.06
2018-06-15T05:34:14.378Z,77.48
2018-06-15T05:36:07.327Z,76.61
2018-06-15T05:37:07.334Z,76.71
2018-06-15T05:39:00.281Z,75.51
2018-06-15T05:40:00.285Z,75.51
2018-06-15T05:41:53.210Z,77.15
2018-06-15T05:42:53.238Z,77.25
2018-06-15T05:44:46.177Z,78.21
2018-06-15T05:45:46.190Z,78.50
2018-06-15T05:47:39.111Z,78.31
2018-06-15T05:48:39.138Z,78.21
2018-06-15T05:50:32.084Z,76.48
2018-06-15T05:51:32.090Z,76.38
2018-06-15T05:53:25.013Z,76.28
2018-06-15T05:54:25.037Z,76.57
2018-06-15T05:56:17.980Z,76.28
2018-06-15T05:57:17.986Z,76.09
2018-06-15T05:59:10.944Z,75.99
2018-06-15T06:00:10.936Z,76.57
2018-06-15T06:02:03.855Z,76.09
2018-06-15T06:03:03.884Z,76.15
2018-06-15T06:04:56.823Z,75.76
2018-06-15T06:05:56.833Z,75.71
2018-06-15T06:07:49.752Z,75.03
2018-06-15T06:08:49.782Z,74.65
2018-06-15T06:10:42.722Z,75.61
2018-06-15T06:11:42.781Z,75.45
2018-06-15T06:13:35.665Z,75.51
2018-06-15T06:14:35.680Z,76.18
2018-06-15T06:16:28.630Z,76.38
2018-06-15T06:17:28.632Z,76.28
2018-06-15T06:19:21.557Z,76.28
2018-06-15T06:20:21.585Z,75.99
2018-06-15T06:22:14.535Z,76.32
2018-06-15T06:23:14.540Z,75.45
2018-06-15T06:25:07.515Z,74.97
2018-06-15T06:26:07.520Z,75.45
2018-06-15T06:28:00.441Z,75.59
2018-06-15T06:29:00.469Z,75.40
2018-06-15T06:30:53.428Z,75.30
2018-06-15T06:31:53.438Z,74.95
2018-06-15T06:33:46.856Z,74.47
2018-06-15T06:34:46.885Z,74.18
2018-06-15T06:36:39.832Z,72.34
2018-06-15T06:37:39.834Z,72.73
2018-06-15T06:39:32.759Z,73.02
2018-06-15T06:40:32.794Z,72.54
2018-06-15T06:42:25.731Z,73.11
2018-06-15T06:43:25.739Z,73.69
2018-06-15T06:45:18.670Z,74.08
2018-06-15T06:46:18.696Z,74.27
2018-06-15T06:48:11.646Z,74.27
2018-06-15T06:49:11.654Z,74.27
2018-06-15T06:51:04.601Z,73.41
2018-06-15T06:52:04.610Z,72.54
2018-06-15T06:53:57.535Z,71.96
2018-06-15T06:54:57.564Z,71.86
2018-06-15T06:56:50.506Z,70.22
2018-06-15T06:57:50.518Z,70.13
2018-06-15T06:59:43.444Z,70.61
2018-06-15T07:00:43.472Z,70.13
2018-06-15T07:02:36.414Z,68.91
2018-06-15T07:03:36.424Z,68.71
2018-06-15T07:05:29.350Z,67.65
2018-06-15T07:06:29.375Z,67.14
2018-06-15T07:08:22.319Z,67.43
2018-06-15T07:09:22.328Z,67.65
2018-06-15T07:11:15.253Z,67.55
2018-06-15T07:12:15.282Z,67.75
2018-06-15T07:14:08.223Z,68.04
2018-06-15T07:15:08.232Z,67.36
2018-06-15T07:17:01.180Z,67.07
2018-06-15T07:18:01.185Z,66.20
2018-06-15T07:19:54.117Z,65.95
2018-06-15T07:20:54.143Z,65.27
2018-06-15T07:22:47.080Z,65.34
2018-06-15T07:23:47.095Z,65.53
2018-06-15T07:25:40.016Z,66.88
2018-06-15T07:26:40.046Z,66.43
2018-06-15T07:28:32.994Z,66.69
2018-06-15T07:29:33.003Z,65.82
2018-06-15T07:31:25.928Z,65.27
2018-06-15T07:32:25.956Z,65.47
2018-06-15T07:34:18.904Z,66.14
2018-06-15T07:35:18.914Z,66.43
2018-06-15T07:37:12.417Z,65.75
2018-06-15T07:38:11.877Z,66.24
2018-06-15T07:40:04.794Z,65.50
2018-06-15T07:41:04.826Z,66.17
2018-06-15T07:42:57.773Z,65.88
2018-06-15T07:43:57.779Z,65.78
2018-06-15T07:45:50.707Z,66.17
2018-06-15T07:46:50.737Z,66.94
2018-06-15T07:48:43.683Z,66.30
2018-06-15T07:49:43.695Z,65.63
2018-06-15T07:51:36.622Z,65.43
2018-06-15T07:52:36.653Z,66.11
2018-06-15T07:54:29.600Z,65.34
2018-06-15T07:55:29.605Z,65.24
2018-06-15T07:57:22.567Z,65.24
2018-06-15T07:58:22.566Z,65.34
2018-06-15T08:00:15.981Z,65.53
2018-06-15T08:01:16.013Z,64.66
2018-06-15T08:03:08.956Z,63.40
2018-06-15T08:04:08.966Z,64.37
2018-06-15T08:06:01.889Z,64.21
2018-06-15T08:07:01.924Z,64.50
2018-06-15T08:08:54.870Z,62.18
2018-06-15T08:09:54.879Z,59.95
2018-06-15T08:11:48.297Z,61.60
2018-06-15T08:12:48.343Z,62.01
2018-06-15T08:14:41.292Z,62.98
2018-06-15T08:15:41.287Z,62.30
2018-06-15T08:17:34.214Z,62.53
2018-06-15T08:18:34.244Z,62.04
2018-06-15T08:20:27.192Z,59.82
2018-06-15T08:21:27.210Z,57.50
2018-06-15T08:23:20.154Z,58.63
2018-06-15T08:24:20.166Z,59.31
2018-06-15T08:26:13.096Z,60.27
2018-06-15T08:27:13.123Z,59.50
2018-06-15T08:29:06.071Z,60.11
2018-06-15T08:30:06.093Z,58.27
2018-06-15T08:31:59.011Z,58.01
2018-06-15T08:32:59.042Z,56.26
2018-06-15T08:34:51.994Z,56.97
2018-06-15T08:35:52.002Z,53.97
2018-06-15T08:37:46.445Z,54.62
2018-06-15T08:38:46.460Z,54.79
2018-06-15T08:40:39.383Z,55.56
2018-06-15T08:41:39.415Z,56.24
2018-06-15T08:43:32.369Z,57.11
2018-06-15T08:44:32.376Z,57.98
2018-06-15T08:46:25.300Z,58.65
2018-06-15T08:47:25.332Z,59.82
2018-06-15T08:49:19.772Z,57.40
2018-06-15T08:50:19.785Z,58.85
2018-06-15T08:52:12.713Z,58.98
2018-06-15T08:53:12.742Z,57.04
2018-06-15T08:55:05.689Z,56.65
2018-06-15T08:56:05.701Z,55.00
2018-06-15T08:57:58.653Z,56.62
2018-06-15T08:58:58.666Z,57.91
2018-06-15T09:00:51.589Z,59.07
2018-06-15T09:01:51.676Z,57.91
2018-06-15T09:03:44.571Z,55.90
2018-06-15T09:04:44.577Z,55.62
2018-06-15T09:06:37.505Z,54.26
2018-06-15T09:07:37.535Z,54.55
2018-06-15T09:09:30.979Z,55.71
2018-06-15T09:10:30.993Z,56.39
2018-06-15T09:12:23.926Z,55.81
2018-06-15T09:13:23.958Z,55.40
2018-06-15T09:15:16.902Z,55.46
2018-06-15T09:16:16.916Z,56.04
2018-06-15T09:18:09.885Z,57.79
2018-06-15T09:19:09.876Z,57.11
2018-06-15T09:21:02.828Z,55.27
2018-06-15T09:22:02.857Z,54.66
2018-06-15T09:23:55.809Z,55.21
2018-06-15T09:24:55.814Z,55.51
2018-06-15T09:26:48.743Z,54.66
2018-06-15T09:27:48.778Z,55.24
2018-06-15T09:29:41.725Z,56.70
2018-06-15T09:30:41.733Z,58.47
2018-06-15T09:32:35.204Z,55.94
2018-06-15T09:33:35.185Z,56.34
2018-06-15T09:35:28.133Z,55.85
2018-06-15T09:36:28.141Z,55.27
2018-06-15T09:38:21.070Z,55.07
2018-06-15T09:39:21.100Z,54.71
2018-06-15T09:41:14.054Z,55.27
2018-06-15T09:42:14.059Z,54.69
2018-06-15T09:44:07.500Z,55.15
2018-06-15T09:45:07.513Z,55.34
2018-06-15T09:47:00.440Z,56.60
2018-06-15T09:48:00.471Z,56.30
2018-06-15T09:49:53.413Z,58.82
2018-06-15T09:50:53.423Z,58.04
2018-06-15T09:52:46.368Z,57.01
2018-06-15T09:53:46.390Z,56.92
2018-06-15T09:55:39.818Z,58.39
2018-06-15T09:56:39.830Z,54.94
2018-06-15T09:58:32.754Z,53.85
2018-06-15T09:59:32.782Z,53.65
2018-06-15T10:01:25.727Z,53.26
2018-06-15T10:02:25.739Z,54.43
2018-06-15T10:04:18.665Z,56.10
2018-06-15T10:05:18.696Z,56.71
2018-06-15T10:07:11.642Z,55.54
2018-06-15T10:08:11.651Z,55.18
2018-06-15T10:10:05.091Z,51.59
2018-06-15T10:11:05.103Z,50.50
2018-06-15T10:12:58.543Z,49.15
2018-06-15T10:13:58.552Z,50.70
2018-06-15T10:15:51.503Z,53.22
2018-06-15T10:16:51.510Z,52.06
2018-06-15T10:18:44.439Z,53.41
2018-06-15T10:19:44.473Z,53.51
2018-06-15T10:21:37.414Z,49.37
2018-06-15T10:22:37.426Z,49.46
2018-06-15T10:24:30.845Z,46.94
2018-06-15T10:25:30.876Z,47.13
2018-06-15T10:27:23.827Z,48.61
2018-06-15T10:28:23.840Z,50.36
2018-06-15T10:30:16.768Z,48.80
2018-06-15T10:31:16.798Z,49.00
2018-06-15T10:33:09.794Z,46.96
2018-06-15T10:34:09.758Z,46.96
2018-06-15T10:36:02.709Z,48.03
2018-06-15T10:37:02.720Z,47.25
2018-06-15T10:38:55.647Z,46.65
2018-06-15T10:39:55.680Z,48.61
2018-06-15T10:41:48.632Z,48.54
2018-06-15T10:42:48.644Z,46.21
2018-06-15T10:44:41.579Z,46.14
2018-06-15T10:45:41.638Z,45.84
2018-06-15T10:47:34.555Z,45.09
2018-06-15T10:48:34.571Z,44.41
2018-06-15T10:50:27.505Z,43.63
2018-06-15T10:51:27.531Z,42.78
2018-06-15T10:53:20.483Z,44.89
2018-06-15T10:54:20.492Z,44.72
2018-06-15T10:56:13.974Z,43.55
2018-06-15T10:57:13.949Z,42.00
2018-06-15T10:59:06.881Z,43.48
2018-06-15T11:00:06.913Z,41.73
2018-06-15T11:01:59.867Z,42.90
2018-06-15T11:02:59.884Z,38.52
2018-06-15T11:04:52.812Z,40.56
2018-06-15T11:05:52.844Z,39.39
2018-06-15T11:07:45.791Z,38.52
2018-06-15T11:08:45.807Z,37.64
2018-06-15T11:10:38.741Z,38.52
2018-06-15T11:11:38.772Z,39.22
2018-06-15T11:13:31.767Z,37.16
2018-06-15T11:14:31.855Z,37.26
2018-06-15T11:16:24.813Z,37.35
2018-06-15T11:17:24.840Z,36.67
2018-06-15T11:19:18.290Z,36.77
2018-06-15T11:20:18.304Z,37.43
2018-06-15T11:22:11.349Z,36.67
2018-06-15T11:23:11.363Z,36.16
2018-06-15T11:25:04.795Z,37.41
2018-06-15T11:26:04.828Z,37.51
2018-06-15T11:27:57.871Z,38.95
2018-06-15T11:28:57.887Z,39.34
2018-06-15T11:30:51.324Z,40.60
2018-06-15T11:31:51.350Z,40.50
2018-06-15T11:33:44.391Z,42.27
2018-06-15T11:34:44.407Z,41.59
2018-06-15T11:36:37.432Z,40.54
2018-06-15T11:37:37.466Z,40.75
2018-06-15T11:39:30.913Z,40.00
2018-06-15T11:40:30.926Z,39.12
2018-06-15T11:42:23.957Z,38.17
2018-06-15T11:43:23.988Z,37.68
2018-06-15T11:45:17.028Z,35.93
2018-06-15T11:46:17.039Z,36.98
2018-06-15T11:48:10.602Z,37.46
2018-06-15T11:49:10.610Z,36.69
2018-06-15T11:51:03.634Z,37.85
2018-06-15T11:52:03.665Z,38.83
2018-06-15T11:53:56.710Z,39.39
2018-06-15T11:54:56.723Z,38.52
2018-06-15T11:56:49.747Z,37.72
2018-06-15T11:57:49.783Z,37.24
2018-06-15T11:59:43.235Z,37.62
2018-06-15T12:00:43.247Z,38.46
2018-06-15T12:02:36.693Z,39.41
2018-06-15T12:03:36.724Z,39.34
2018-06-15T12:05:29.754Z,39.32
2018-06-15T12:06:29.767Z,39.41
2018-06-15T12:08:22.793Z,41.45
2018-06-15T12:09:22.822Z,42.03
2018-06-15T12:11:16.382Z,43.20
2018-06-15T12:12:16.392Z,42.74
2018-06-15T12:14:09.945Z,42.44
2018-06-15T12:15:09.959Z,42.05
2018-06-15T12:17:03.407Z,41.88
2018-06-15T12:18:03.448Z,40.13
2018-06-15T12:19:56.476Z,39.75
2018-06-15T12:20:56.501Z,39.45
2018-06-15T12:22:49.506Z,39.55
2018-06-15T12:23:49.543Z,40.06
2018-06-15T12:25:43.093Z,41.80
2018-06-15T12:26:43.107Z,41.42
2018-06-15T12:28:36.187Z,37.56
2018-06-15T12:29:36.180Z,37.66
2018-06-15T12:31:29.239Z,37.76
2018-06-15T12:32:29.221Z,37.56
2018-06-15T12:34:22.281Z,36.49
2018-06-15T12:35:22.293Z,36.98
2018-06-15T12:37:15.797Z,37.84
2018-06-15T12:38:15.751Z,38.23
2018-06-15T12:40:09.199Z,37.72
2018-06-15T12:41:09.213Z,37.34
2018-06-15T12:43:02.646Z,37.14
2018-06-15T12:44:02.680Z,36.85
2018-06-15T12:45:55.866Z,36.75
2018-06-15T12:46:55.732Z,37.99
2018-06-15T12:48:48.758Z,37.82
2018-06-15T12:49:48.807Z,37.12
2018-06-15T12:51:42.392Z,38.46
2018-06-15T12:52:42.358Z,38.46
2018-06-15T12:54:35.791Z,39.26
2018-06-15T12:55:35.820Z,40.62
2018-06-15T12:57:28.865Z,39.57
2018-06-15T12:58:28.888Z,38.98
2018-06-15T13:00:22.344Z,36.36
2018-06-15T13:01:22.344Z,36.44
2018-06-15T13:03:15.373Z,37.72
2018-06-15T13:04:15.404Z,39.26
2018-06-15T13:06:08.491Z,37.30
2018-06-15T13:07:08.529Z,38.37
2018-06-15T13:09:01.484Z,39.12
2018-06-15T13:10:01.514Z,39.80
2018-06-15T13:11:54.560Z,41.84
2018-06-15T13:12:54.573Z,41.84
2018-06-15T13:14:47.625Z,40.50
2018-06-15T13:15:47.632Z,40.41
2018-06-15T13:17:40.581Z,39.75
2018-06-15T13:18:40.599Z,39.75
2018-06-15T13:20:33.525Z,38.09
2018-06-15T13:21:33.555Z,37.98
2018-06-15T13:23:26.501Z,38.46
2018-06-15T13:24:26.514Z,38.46
2018-06-15T13:26:19.470Z,39.43
2018-06-15T13:27:19.482Z,38.95
2018-06-15T13:29:12.408Z,39.24
2018-06-15T13:30:12.437Z,38.56
2018-06-15T13:32:05.390Z,39.53
2018-06-15T13:33:05.399Z,38.17
2018-06-15T13:34:58.328Z,38.07
2018-06-15T13:35:58.358Z,38.56
2018-06-15T13:37:51.309Z,39.34
2018-06-15T13:38:51.317Z,37.60
2018-06-15T13:40:44.246Z,37.62
2018-06-15T13:41:44.276Z,38.11
2018-06-15T13:43:37.226Z,32.39
2018-06-15T13:44:37.236Z,35.50
2018-06-15T13:46:30.194Z,34.43
2018-06-15T13:47:30.195Z,35.21
2018-06-15T13:49:23.130Z,35.42
2018-06-15T13:50:23.163Z,34.74
2018-06-15T13:52:16.110Z,36.08
2018-06-15T13:53:16.123Z,34.74
2018-06-15T13:55:09.545Z,35.13
2018-06-15T13:56:09.578Z,33.85
2018-06-15T13:58:02.525Z,34.24
2018-06-15T13:59:02.577Z,35.50
2018-06-15T14:00:55.471Z,34.43
2018-06-15T14:01:55.502Z,35.50
2018-06-15T14:03:48.551Z,34.63
2018-06-15T14:04:48.564Z,33.95
2018-06-15T14:06:41.495Z,35.10
2018-06-15T14:07:41.525Z,35.49
2018-06-15T14:09:34.598Z,34.90
2018-06-15T14:10:34.624Z,35.58
2018-06-15T14:12:27.618Z,36.46
2018-06-15T14:13:27.631Z,36.55
2018-06-15T14:15:20.661Z,36.94
2018-06-15T14:16:20.693Z,37.14
2018-06-15T14:18:13.732Z,35.10
2018-06-15T14:19:13.749Z,34.61
2018-06-15T14:21:06.787Z,36.36
2018-06-15T14:22:06.801Z,35.58
2018-06-15T14:23:59.922Z,35.39
2018-06-15T14:24:59.931Z,34.70
2018-06-15T14:26:53.032Z,35.31
2018-06-15T14:27:53.049Z,34.82
2018-06-15T14:29:46.572Z,34.25
2018-06-15T14:30:46.592Z,34.35
2018-06-15T14:32:39.685Z,33.65
2018-06-15T14:33:39.642Z,34.33
2018-06-15T14:35:32.668Z,35.50
2018-06-15T14:36:32.697Z,34.33
2018-06-15T14:38:25.743Z,34.72
2018-06-15T14:39:25.755Z,34.72
2018-06-15T14:41:18.779Z,34.33
2018-06-15T14:42:18.815Z,34.45
2018-06-15T14:44:11.858Z,35.23
2018-06-15T14:45:11.890Z,33.86
2018-06-15T14:47:04.892Z,34.05
2018-06-15T14:48:04.924Z,34.43
2018-06-15T14:49:57.966Z,34.24
2018-06-15T14:50:57.985Z,35.02
2018-06-15T14:52:51.048Z,34.12
2018-06-15T14:53:51.038Z,33.83
2018-06-15T14:55:44.081Z,35.00
2018-06-15T14:56:44.103Z,35.19
2018-06-15T14:58:37.151Z,34.80
2018-06-15T14:59:37.149Z,34.42
2018-06-15T15:01:30.176Z,35.68
2018-06-15T15:02:30.227Z,35.78
2018-06-15T15:04:23.250Z,35.58
2018-06-15T15:05:23.261Z,36.65
2018-06-15T15:07:16.287Z,37.06
2018-06-15T15:08:16.392Z,36.47
2018-06-15T15:10:09.368Z,35.60
2018-06-15T15:11:09.376Z,35.89
2018-06-15T15:13:02.403Z,35.81
2018-06-15T15:14:02.434Z,34.94
2018-06-15T15:15:55.885Z,33.36
2018-06-15T15:16:55.899Z,34.16
2018-06-15T15:18:48.979Z,35.42
2018-06-15T15:19:48.955Z,35.71
2018-06-15T15:21:42.014Z,35.13
2018-06-15T15:22:42.015Z,35.13
2018-06-15T15:24:35.054Z,35.05
2018-06-15T15:25:35.067Z,34.27
2018-06-15T15:27:28.097Z,35.36
2018-06-15T15:28:28.124Z,35.36
2018-06-15T15:30:33.054Z,34.29
2018-06-15T15:31:33.066Z,32.45
2018-06-15T15:33:26.085Z,33.31
2018-06-15T15:34:26.121Z,33.90
2018-06-15T15:36:19.202Z,33.80
2018-06-15T15:37:19.176Z,34.19
2018-06-15T15:39:12.199Z,33.49
2018-06-15T15:40:12.236Z,33.78
2018-06-15T15:42:06.708Z,35.63
2018-06-15T15:43:06.728Z,35.73
2018-06-15T15:44:59.783Z,34.56
2018-06-15T15:45:59.780Z,35.85
2018-06-15T15:47:52.803Z,35.16
2018-06-15T15:48:52.838Z,34.40
2018-06-15T15:50:45.877Z,34.21
2018-06-15T15:51:45.891Z,32.55
2018-06-15T15:53:38.916Z,32.35
2018-06-15T15:54:38.948Z,32.84
2018-06-15T15:56:31.990Z,33.04
2018-06-15T15:57:32.006Z,33.04
2018-06-15T15:59:25.026Z,33.14
2018-06-15T16:00:25.060Z,32.73
2018-06-15T16:02:18.108Z,33.02
2018-06-15T16:03:18.121Z,32.52
2018-06-15T16:05:11.160Z,33.39
2018-06-15T16:06:11.172Z,34.35
2018-06-15T16:08:04.202Z,35.91
2018-06-15T16:09:04.651Z,35.52
2018-06-15T16:10:57.271Z,36.10
2018-06-15T16:11:57.285Z,35.42
2018-06-15T16:13:50.313Z,34.55
2018-06-15T16:14:50.340Z,33.86
2018-06-15T16:16:43.804Z,34.05
2018-06-15T16:17:43.807Z,33.75
2018-06-15T16:19:36.836Z,34.43
2018-06-15T16:20:36.886Z,34.22
2018-06-15T16:22:29.907Z,33.83
2018-06-15T16:23:29.923Z,33.93
2018-06-15T16:25:22.968Z,34.52
2018-06-15T16:26:22.977Z,34.90
2018-06-15T16:28:17.438Z,34.72
2018-06-15T16:29:17.465Z,34.53
2018-06-15T16:31:10.511Z,34.33
2018-06-15T16:32:10.524Z,34.24
2018-06-15T16:34:03.555Z,33.85
2018-06-15T16:35:03.585Z,34.92
2018-06-15T16:36:56.687Z,35.80
2018-06-15T16:37:56.663Z,35.80
2018-06-15T16:39:50.070Z,36.28
2018-06-15T16:40:50.100Z,35.99
2018-06-15T16:42:43.557Z,36.18
2018-06-15T16:43:43.567Z,36.38
2018-06-15T16:45:36.593Z,36.96
2018-06-15T16:46:36.627Z,36.77
2018-06-15T16:48:29.710Z,36.67
2018-06-15T16:49:29.684Z,36.38
2018-06-15T16:51:22.752Z,36.67
2018-06-15T16:52:22.757Z,37.06
2018-06-15T16:54:15.763Z,36.47
2018-06-15T16:55:15.799Z,37.06
2018-06-15T16:57:08.841Z,36.57
2018-06-15T16:58:08.853Z,36.77
2018-06-15T17:00:01.877Z,37.06
2018-06-15T17:01:01.912Z,37.06
2018-06-15T17:02:54.953Z,35.99
2018-06-15T17:03:54.976Z,36.67
2018-06-15T17:05:47.997Z,36.08
2018-06-15T17:06:48.020Z,35.50
2018-06-15T17:08:42.498Z,35.60
2018-06-15T17:09:42.516Z,36.67
2018-06-15T17:11:35.566Z,37.45
2018-06-15T17:12:35.569Z,36.77
2018-06-15T17:14:29.004Z,36.36
2018-06-15T17:15:29.040Z,36.38
2018-06-15T17:17:22.593Z,36.67
2018-06-15T17:18:22.606Z,36.47
2018-06-15T17:20:15.627Z,36.85
2018-06-15T17:21:15.679Z,37.74
2018-06-15T17:23:08.756Z,36.67
2018-06-15T17:24:08.767Z,36.08
2018-06-15T17:26:01.740Z,35.99
2018-06-15T17:27:01.771Z,34.72
2018-06-15T17:28:54.828Z,36.16
2018-06-15T17:29:54.832Z,36.38
2018-06-15T17:31:47.901Z,35.99
2018-06-15T17:32:47.920Z,35.89
2018-06-15T17:34:40.918Z,35.41
2018-06-15T17:35:40.990Z,35.68
2018-06-15T17:37:34.566Z,36.46
2018-06-15T17:38:34.513Z,36.28
2018-06-15T17:40:27.536Z,36.67
2018-06-15T17:41:27.589Z,36.18
2018-06-15T17:43:20.608Z,37.06
2018-06-15T17:44:20.624Z,37.26
2018-06-15T17:46:13.648Z,37.52
2018-06-15T17:47:13.684Z,37.72
2018-06-15T17:49:06.760Z,37.72
2018-06-15T17:50:06.742Z,37.62
2018-06-15T17:51:59.762Z,37.34
2018-06-15T17:52:59.800Z,38.01
2018-06-15T17:54:52.836Z,38.40
2018-06-15T17:55:52.847Z,39.16
2018-06-15T17:57:46.008Z,38.39
2018-06-15T17:58:45.905Z,38.77
2018-06-15T18:00:38.949Z,39.43
2018-06-15T18:01:38.965Z,39.53
2018-06-15T18:03:32.008Z,38.46
2018-06-15T18:04:32.021Z,39.04
2018-06-15T18:06:25.044Z,38.95
2018-06-15T18:07:25.076Z,39.43
2018-06-15T18:09:18.123Z,39.24
2018-06-15T18:10:18.132Z,39.43
2018-06-15T18:12:11.158Z,39.62
2018-06-15T18:13:11.189Z,39.72
2018-06-15T18:15:04.645Z,40.21
2018-06-15T18:16:04.659Z,39.62
2018-06-15T18:17:57.681Z,39.75
2018-06-15T18:18:57.711Z,39.84
2018-06-15T18:20:51.167Z,39.36
2018-06-15T18:21:51.175Z,39.75
2018-06-15T18:23:44.223Z,40.23
2018-06-15T18:24:44.239Z,40.03
2018-06-15T18:26:37.260Z,39.55
2018-06-15T18:27:37.292Z,40.03
2018-06-15T18:29:30.335Z,40.81
2018-06-15T18:30:30.345Z,40.62
2018-06-15T18:32:24.808Z,39.06
2018-06-15T18:33:24.837Z,40.03
2018-06-15T18:35:17.881Z,40.42